Time;durP1;ratioP1;P1;durP2;ratioP2;P2;SDS_P1;SDS_P2;PMS_P1;PMS_P2;Temp;Humidity;BMP_temperature;BMP_pressure;BME280_temperature;BME280_humidity;BME280_pressure;Samples;Min_cycle;Max_cycle;Signal;HPM_P1;HPM_P2
2023/05/09 00:00:27;;;;;;;22.77;13.25;;;16.30;99.90;;;;;;5032434;28;20061;-38
2023/05/09 00:02:53;;;;;;;27.60;14.50;;;16.30;99.90;;;;;;5033046;28;20495;-37
2023/05/09 00:05:20;;;;;;;26.30;14.15;;;16.30;99.90;;;;;;5035706;28;20573;-37
2023/05/09 00:07:46;;;;;;;24.33;12.82;;;16.30;99.90;;;;;;5036180;28;20313;-36
2023/05/09 00:10:12;;;;;;;26.08;13.85;;;16.30;99.90;;;;;;5035451;28;20549;-37
2023/05/09 00:12:37;;;;;;;22.35;11.70;;;16.30;99.90;;;;;;5016995;28;20320;-37
2023/05/09 00:15:07;;;;;;;25.20;14.25;;;16.30;99.90;;;;;;5023341;28;20068;-37
2023/05/09 00:17:37;;;;;;;26.35;13.20;;;16.30;99.90;;;;;;5020332;28;20457;-37
2023/05/09 00:20:06;;;;;;;26.65;14.05;;;16.30;99.90;;;;;;5016201;28;20148;-37
2023/05/09 00:22:32;;;;;;;26.30;13.48;;;16.20;99.90;;;;;;5028859;28;20057;-37
2023/05/09 00:24:57;;;;;;;23.20;12.00;;;16.20;99.90;;;;;;5035390;28;20111;-37
2023/05/09 00:27:23;;;;;;;23.10;12.40;;;16.10;99.90;;;;;;5040812;28;20479;-37
2023/05/09 00:29:49;;;;;;;27.73;14.57;;;16.10;99.90;;;;;;5031330;28;20414;-37
2023/05/09 00:32:14;;;;;;;27.10;15.10;;;16.00;99.90;;;;;;5031917;28;20049;-37
2023/05/09 00:34:40;;;;;;;29.23;15.13;;;16.00;99.90;;;;;;5027738;28;20103;-38
2023/05/09 00:37:05;;;;;;;28.98;14.52;;;16.00;99.90;;;;;;5037691;28;20441;-37
2023/05/09 00:39:31;;;;;;;26.25;13.35;;;15.90;99.90;;;;;;5029551;28;20106;-38
2023/05/09 00:41:57;;;;;;;25.58;13.57;;;15.90;99.90;;;;;;5040966;28;20041;-37
2023/05/09 00:44:23;;;;;;;35.20;17.58;;;15.90;99.90;;;;;;5029683;28;20054;-37
2023/05/09 00:46:48;;;;;;;30.95;14.93;;;15.80;99.90;;;;;;5043816;28;20411;-37
2023/05/09 00:49:14;;;;;;;30.23;14.70;;;15.80;99.90;;;;;;5036709;28;20440;-37
2023/05/09 00:51:40;;;;;;;28.17;14.90;;;15.80;99.90;;;;;;5024014;28;20076;-37
2023/05/09 00:54:07;;;;;;;31.05;14.75;;;15.80;99.90;;;;;;5035170;28;20072;-37
2023/05/09 00:56:32;;;;;;;31.88;15.80;;;15.80;99.90;;;;;;5022004;28;20056;-38
2023/05/09 00:58:58;;;;;;;29.02;14.77;;;15.90;99.90;;;;;;5022214;28;20288;-38
2023/05/09 01:01:25;;;;;;;30.83;16.63;;;15.90;99.90;;;;;;5020723;28;20049;-37
2023/05/09 01:03:51;;;;;;;31.33;16.42;;;15.90;99.90;;;;;;5026535;28;20057;-37
2023/05/09 01:07:04;;;;;;;31.38;15.90;;;15.80;99.90;;;;;;5033293;28;20199;-37
2023/05/09 01:09:33;;;;;;;34.42;17.50;;;15.80;99.90;;;;;;5019873;28;20492;-37
2023/05/09 01:12:11;;;;;;;32.03;16.25;;;15.80;99.90;;;;;;5034043;28;20127;-37
2023/05/09 01:15:03;;;;;;;29.98;15.95;;;15.80;99.90;;;;;;5036330;28;20567;-36
2023/05/09 01:17:54;;;;;;;26.83;14.77;;;15.70;99.90;;;;;;5030698;28;20041;-37
2023/05/09 01:20:28;;;;;;;35.08;16.15;;;15.70;99.90;;;;;;5020481;28;20044;-37
2023/05/09 01:23:06;;;;;;;33.58;15.95;;;15.70;99.90;;;;;;5025553;28;20041;-37
2023/05/09 01:25:54;;;;;;;26.63;13.70;;;15.70;99.90;;;;;;5020788;28;20058;-37
2023/05/09 01:28:58;;;;;;;29.30;14.98;;;15.70;99.90;;;;;;5025380;28;20052;-37
2023/05/09 01:31:25;;;;;;;25.85;13.60;;;15.60;99.90;;;;;;5024227;28;20052;-37
2023/05/09 01:33:56;;;;;;;28.17;14.10;;;15.70;99.90;;;;;;5027360;28;20479;-37
2023/05/09 01:36:28;;;;;;;32.60;15.25;;;15.60;99.90;;;;;;5026696;28;20083;-37
2023/05/09 01:38:55;;;;;;;31.80;16.43;;;15.60;99.90;;;;;;5030568;28;20045;-37
2023/05/09 01:41:23;;;;;;;34.25;17.80;;;15.70;99.90;;;;;;5022023;28;20068;-37
2023/05/09 01:43:50;;;;;;;34.53;16.88;;;15.70;99.90;;;;;;5025895;28;20480;-37
2023/05/09 01:46:18;;;;;;;33.85;16.23;;;15.70;99.90;;;;;;5023404;28;20085;-36
2023/05/09 01:48:44;;;;;;;35.42;16.83;;;15.70;99.90;;;;;;5016038;28;20495;-37
2023/05/09 01:51:12;;;;;;;30.02;15.32;;;15.70;99.90;;;;;;5025756;28;20049;-37
2023/05/09 01:53:38;;;;;;;34.97;17.90;;;15.70;99.90;;;;;;5012744;28;20541;-37
2023/05/09 01:56:06;;;;;;;33.67;15.88;;;15.70;99.90;;;;;;5018555;28;20046;-38
2023/05/09 01:58:33;;;;;;;32.25;15.15;;;15.70;99.90;;;;;;5020850;28;20041;-37
2023/05/09 02:01:00;;;;;;;35.00;17.25;;;15.70;99.90;;;;;;5022470;28;20049;-36
2023/05/09 02:03:26;;;;;;;30.17;14.88;;;15.70;99.90;;;;;;5013017;28;20054;-37
2023/05/09 02:05:54;;;;;;;31.15;15.77;;;15.70;99.90;;;;;;5027921;28;20141;-37
2023/05/09 02:08:21;;;;;;;29.83;15.50;;;15.60;99.90;;;;;;5034169;28;20057;-36
2023/05/09 02:10:50;;;;;;;34.67;16.45;;;15.60;99.90;;;;;;5017636;28;20084;-37
2023/05/09 02:13:16;;;;;;;30.38;15.00;;;15.60;99.90;;;;;;5020040;28;20376;-37
2023/05/09 02:15:42;;;;;;;31.60;14.43;;;15.60;99.90;;;;;;5015824;28;20075;-37
2023/05/09 02:18:08;;;;;;;32.75;15.73;;;15.60;99.90;;;;;;5018064;28;20495;-37
2023/05/09 02:20:34;;;;;;;32.80;16.35;;;15.60;99.90;;;;;;5017119;28;20045;-37
2023/05/09 02:23:00;;;;;;;32.15;14.98;;;15.60;99.90;;;;;;5030683;28;20140;-36
2023/05/09 02:25:26;;;;;;;31.00;15.27;;;15.50;99.90;;;;;;5017934;28;20144;-37
2023/05/09 02:27:55;;;;;;;32.90;16.67;;;15.60;99.90;;;;;;5019330;28;20057;-37
2023/05/09 02:30:24;;;;;;;34.17;16.75;;;15.60;99.90;;;;;;5025001;28;20483;-36
2023/05/09 02:32:53;;;;;;;32.78;16.48;;;15.60;99.90;;;;;;5025171;28;20053;-37
2023/05/09 02:35:20;;;;;;;34.97;17.30;;;15.60;99.90;;;;;;5029974;28;20049;-37
2023/05/09 02:37:47;;;;;;;32.65;17.00;;;15.60;99.90;;;;;;5025833;28;20064;-36
2023/05/09 02:40:13;;;;;;;31.58;15.30;;;15.60;99.90;;;;;;5023922;28;20581;-36
2023/05/09 02:42:39;;;;;;;33.67;16.10;;;15.60;99.90;;;;;;5017554;28;20053;-37
2023/05/09 02:45:06;;;;;;;33.95;16.90;;;15.60;99.90;;;;;;5020705;28;20502;-37
2023/05/09 02:47:32;;;;;;;32.53;16.40;;;15.60;99.90;;;;;;5017779;28;20102;-37
2023/05/09 02:49:57;;;;;;;36.65;18.40;;;15.60;99.90;;;;;;5020262;28;20459;-37
2023/05/09 02:52:23;;;;;;;35.15;17.50;;;15.50;99.90;;;;;;5023114;28;20057;-36
2023/05/09 02:54:49;;;;;;;36.58;18.52;;;15.50;99.90;;;;;;5029639;28;20053;-37
2023/05/09 02:57:15;;;;;;;29.75;15.65;;;15.50;99.90;;;;;;5023162;28;20056;-37
2023/05/09 02:59:41;;;;;;;31.95;16.60;;;15.50;99.90;;;;;;5029370;28;20051;-36
2023/05/09 03:02:06;;;;;;;42.80;19.48;;;15.50;99.90;;;;;;5028769;28;20053;-38
2023/05/09 03:04:32;;;;;;;36.92;17.67;;;15.50;99.90;;;;;;5030469;28;20049;-37
2023/05/09 03:06:58;;;;;;;40.72;18.17;;;15.50;99.90;;;;;;5027257;28;20042;-37
2023/05/09 03:09:23;;;;;;;42.45;18.90;;;15.50;99.90;;;;;;5014269;28;20052;-37
2023/05/09 03:11:49;;;;;;;36.60;17.98;;;15.40;99.90;;;;;;5032709;28;20053;-37
2023/05/09 03:14:15;;;;;;;40.05;19.25;;;15.40;99.90;;;;;;5036730;28;20531;-36
2023/05/09 03:16:40;;;;;;;37.80;17.77;;;15.40;99.90;;;;;;5034913;28;20053;-37
2023/05/09 03:19:06;;;;;;;33.20;17.38;;;15.40;99.90;;;;;;5040369;28;20057;-37
2023/05/09 03:21:32;;;;;;;40.72;19.20;;;15.40;99.90;;;;;;5028643;28;20058;-37
2023/05/09 03:23:57;;;;;;;36.85;18.05;;;15.40;99.90;;;;;;5018370;28;20054;-37
2023/05/09 03:26:23;;;;;;;43.38;20.63;;;15.40;99.90;;;;;;5029185;28;20128;-37
2023/05/09 03:28:49;;;;;;;40.80;19.30;;;15.40;99.90;;;;;;5023042;28;20060;-37
2023/05/09 03:31:15;;;;;;;39.33;18.55;;;15.40;99.90;;;;;;5039684;28;20056;-37
2023/05/09 03:33:40;;;;;;;38.08;18.08;;;15.40;99.90;;;;;;5029595;28;20070;-37
2023/05/09 03:36:06;;;;;;;39.80;19.13;;;15.40;99.90;;;;;;5021784;28;20061;-37
2023/05/09 03:38:32;;;;;;;41.13;18.98;;;15.40;99.90;;;;;;5024551;28;20034;-37
2023/05/09 03:40:58;;;;;;;38.60;19.30;;;15.50;99.90;;;;;;5035235;28;20052;-37
2023/05/09 03:43:23;;;;;;;36.42;18.10;;;15.50;99.90;;;;;;5026177;28;20049;-37
2023/05/09 03:45:49;;;;;;;38.22;18.48;;;15.50;99.90;;;;;;5032307;28;20229;-37
2023/05/09 03:48:15;;;;;;;42.60;19.35;;;15.50;99.90;;;;;;5020026;28;20046;-37
2023/05/09 03:50:41;;;;;;;37.72;19.15;;;15.40;99.90;;;;;;5025810;28;20080;-37
2023/05/09 03:53:06;;;;;;;45.90;21.10;;;15.40;99.90;;;;;;5015596;28;20511;-37
2023/05/09 03:55:32;;;;;;;43.92;20.50;;;15.40;99.90;;;;;;5021526;28;20056;-36
2023/05/09 03:57:58;;;;;;;38.75;19.75;;;15.40;99.90;;;;;;5039262;28;20091;-37
2023/05/09 04:00:25;;;;;;;41.45;19.80;;;15.40;99.90;;;;;;5032238;28;20049;-36
2023/05/09 04:02:51;;;;;;;40.88;20.67;;;15.40;99.90;;;;;;5040151;28;20435;-37
2023/05/09 04:05:17;;;;;;;43.63;20.10;;;15.30;99.90;;;;;;5037419;28;20048;-37
2023/05/09 04:07:43;;;;;;;39.03;18.75;;;15.30;99.90;;;;;;5017496;28;20052;-37
2023/05/09 04:10:09;;;;;;;46.95;21.15;;;15.40;99.90;;;;;;5027757;28;20056;-38
2023/05/09 04:12:35;;;;;;;39.33;19.85;;;15.40;99.90;;;;;;5018328;28;20080;-37
2023/05/09 04:15:00;;;;;;;46.47;20.17;;;15.40;99.90;;;;;;5026981;28;20083;-38
2023/05/09 04:17:26;;;;;;;40.40;18.42;;;15.40;99.90;;;;;;5043115;28;20183;-37
2023/05/09 04:19:51;;;;;;;46.85;22.05;;;15.40;99.90;;;;;;5026673;28;20054;-37
2023/05/09 04:22:17;;;;;;;45.10;21.77;;;15.30;99.90;;;;;;5030588;28;20091;-37
2023/05/09 04:24:43;;;;;;;44.55;21.33;;;15.40;99.90;;;;;;5031447;28;20037;-38
2023/05/09 04:27:08;;;;;;;43.92;20.60;;;15.40;99.90;;;;;;5024258;28;20092;-37
2023/05/09 04:29:35;;;;;;;38.40;18.40;;;15.40;99.90;;;;;;5036355;28;20522;-42
2023/05/09 04:32:01;;;;;;;47.67;22.10;;;15.40;99.90;;;;;;5038905;28;20045;-37
2023/05/09 04:34:28;;;;;;;36.95;18.55;;;15.40;99.90;;;;;;5036635;28;20053;-37
2023/05/09 04:36:54;;;;;;;42.83;20.73;;;15.40;99.90;;;;;;5030339;28;20048;-36
2023/05/09 04:39:19;;;;;;;39.72;19.52;;;15.40;99.90;;;;;;5016888;28;20056;-38
2023/05/09 04:41:46;;;;;;;39.53;19.27;;;15.40;99.90;;;;;;5021888;28;20049;-39
2023/05/09 04:44:16;;;;;;;42.30;20.17;;;15.40;99.90;;;;;;5036118;28;20102;-38
2023/05/09 04:46:41;;;;;;;43.35;21.55;;;15.40;99.90;;;;;;5026112;28;20046;-37
2023/05/09 04:49:07;;;;;;;45.47;21.67;;;15.40;99.90;;;;;;5020312;28;20123;-38
2023/05/09 04:51:33;;;;;;;46.38;21.90;;;15.40;99.90;;;;;;5021901;28;20203;-37
2023/05/09 04:53:59;;;;;;;45.20;20.80;;;15.40;99.90;;;;;;5021616;28;20140;-38
2023/05/09 04:56:25;;;;;;;49.20;22.20;;;15.40;99.90;;;;;;5024234;28;20135;-37
2023/05/09 04:58:51;;;;;;;41.03;20.33;;;15.40;99.90;;;;;;5025089;28;20041;-37
2023/05/09 05:01:17;;;;;;;46.63;22.20;;;15.40;99.90;;;;;;5034634;28;20045;-37
2023/05/09 05:03:43;;;;;;;45.10;21.50;;;15.40;99.90;;;;;;5022441;28;20053;-38
2023/05/09 05:06:08;;;;;;;47.13;21.15;;;15.40;99.90;;;;;;5011879;28;20053;-37
2023/05/09 05:08:34;;;;;;;49.35;22.67;;;15.40;99.90;;;;;;5021658;28;20132;-37
2023/05/09 05:11:00;;;;;;;48.88;21.88;;;15.40;99.90;;;;;;5012569;28;20052;-38
2023/05/09 05:13:25;;;;;;;48.50;21.65;;;15.40;99.90;;;;;;5017768;28;20185;-38
2023/05/09 05:15:51;;;;;;;51.42;23.02;;;15.40;99.90;;;;;;5013524;28;20124;-38
2023/05/09 05:18:17;;;;;;;44.35;20.85;;;15.40;99.90;;;;;;5020692;28;20053;-37
2023/05/09 05:20:43;;;;;;;44.03;20.65;;;15.40;99.90;;;;;;5016052;28;20050;-37
2023/05/09 05:23:09;;;;;;;48.70;21.70;;;15.40;99.90;;;;;;5024206;28;20103;-38
2023/05/09 05:25:34;;;;;;;46.65;22.25;;;15.50;99.90;;;;;;5035739;28;20539;-37
2023/05/09 05:28:00;;;;;;;43.35;20.90;;;15.50;99.90;;;;;;5024152;28;20136;-38
2023/05/09 05:30:29;;;;;;;46.13;21.45;;;15.50;99.90;;;;;;5022706;28;20434;-37
2023/05/09 05:32:54;;;;;;;46.42;20.55;;;15.60;99.90;;;;;;5028653;28;20506;-37
2023/05/09 05:35:22;;;;;;;44.67;19.98;;;15.60;99.90;;;;;;5028247;28;20075;-37
2023/05/09 05:37:48;;;;;;;44.08;22.20;;;15.60;99.90;;;;;;5030940;28;20088;-37
2023/05/09 05:40:13;;;;;;;40.38;18.42;;;15.60;99.90;;;;;;5025465;28;20053;-37
2023/05/09 05:42:39;;;;;;;44.55;20.98;;;15.70;99.90;;;;;;5020832;28;20530;-36
2023/05/09 05:45:05;;;;;;;46.97;20.92;;;15.70;99.90;;;;;;5028018;28;20058;-37
2023/05/09 05:47:35;;;;;;;39.10;18.90;;;15.80;99.90;;;;;;5026650;28;20053;-37
2023/05/09 05:50:03;;;;;;;44.67;19.63;;;15.80;99.90;;;;;;5027503;28;20047;-37
2023/05/09 05:52:29;;;;;;;42.03;19.80;;;15.90;99.90;;;;;;5025635;28;20057;-37
2023/05/09 05:54:54;;;;;;;44.28;20.85;;;15.90;99.90;;;;;;5026172;28;20042;-37
2023/05/09 05:57:20;;;;;;;41.60;19.95;;;16.00;99.90;;;;;;5030948;28;20060;-36
2023/05/09 05:59:47;;;;;;;41.30;19.33;;;16.00;99.90;;;;;;5030805;28;20052;-36
2023/05/09 06:02:14;;;;;;;39.05;18.17;;;16.10;99.90;;;;;;5026994;28;20096;-36
2023/05/09 06:04:40;;;;;;;38.60;18.80;;;16.10;99.90;;;;;;5026645;28;20041;-36
2023/05/09 06:07:06;;;;;;;45.47;20.45;;;16.20;99.90;;;;;;5031141;28;20041;-36
2023/05/09 06:09:31;;;;;;;36.38;19.35;;;16.20;99.90;;;;;;5025244;28;21173;-37
2023/05/09 06:11:57;;;;;;;42.78;20.40;;;16.20;99.90;;;;;;5027590;28;20147;-36
2023/05/09 06:14:23;;;;;;;42.95;21.13;;;16.10;99.90;;;;;;5024432;28;20059;-36
2023/05/09 06:16:48;;;;;;;35.13;17.98;;;16.10;99.90;;;;;;5028333;28;20601;-35
2023/05/09 06:19:14;;;;;;;41.25;19.60;;;16.10;99.90;;;;;;5027882;28;20064;-36
2023/05/09 06:21:40;;;;;;;43.53;19.42;;;16.10;99.90;;;;;;5030436;28;20102;-36
2023/05/09 06:24:06;;;;;;;49.78;21.73;;;16.10;99.90;;;;;;5033729;28;20144;-35
2023/05/09 06:26:31;;;;;;;40.97;19.63;;;16.00;99.90;;;;;;5029572;28;20136;-36
2023/05/09 06:28:57;;;;;;;47.08;22.58;;;16.10;99.90;;;;;;5026231;28;20195;-35
2023/05/09 06:31:23;;;;;;;44.40;20.02;;;16.00;99.90;;;;;;5029144;28;20049;-36
2023/05/09 06:33:48;;;;;;;42.38;20.08;;;16.00;99.90;;;;;;5034853;28;20518;-36
2023/05/09 06:36:14;;;;;;;43.55;21.63;;;16.00;99.90;;;;;;5029002;28;20053;-35
2023/05/09 06:38:39;;;;;;;43.38;19.25;;;16.00;99.90;;;;;;5031153;28;20037;-36
2023/05/09 06:41:05;;;;;;;40.22;19.38;;;16.10;99.90;;;;;;5029493;28;20495;-36
2023/05/09 06:43:31;;;;;;;43.92;20.75;;;16.20;99.90;;;;;;5028761;28;20403;-36
2023/05/09 06:45:56;;;;;;;38.88;19.10;;;16.20;99.90;;;;;;5027776;28;20048;-36
2023/05/09 06:48:25;;;;;;;43.78;19.05;;;16.20;99.90;;;;;;5032486;28;20049;-37
2023/05/09 06:50:51;;;;;;;37.78;17.55;;;16.30;99.90;;;;;;5029820;28;20415;-37
2023/05/09 06:53:17;;;;;;;34.42;17.42;;;16.30;99.90;;;;;;5027664;28;20068;-37
2023/05/09 06:55:43;;;;;;;34.20;16.52;;;16.30;99.90;;;;;;5031039;28;20058;-37
2023/05/09 06:58:09;;;;;;;33.30;16.85;;;16.30;99.90;;;;;;5030256;28;20044;-36
2023/05/09 07:00:35;;;;;;;32.08;15.60;;;16.30;99.90;;;;;;5031279;28;20049;-37
2023/05/09 07:03:01;;;;;;;27.88;14.82;;;16.30;99.90;;;;;;5026711;28;20061;-36
2023/05/09 07:05:26;;;;;;;32.45;15.90;;;16.30;99.90;;;;;;5021714;28;20119;-36
2023/05/09 07:07:53;;;;;;;27.13;14.48;;;16.30;99.90;;;;;;4984400;28;1096922;-37
2023/05/09 07:10:21;;;;;;;24.13;13.27;;;16.30;99.90;;;;;;5034198;28;20280;-37
2023/05/09 07:12:46;;;;;;;26.52;12.00;;;16.30;99.90;;;;;;5025645;28;20052;-36
2023/05/09 07:15:12;;;;;;;21.65;11.30;;;16.30;99.90;;;;;;5030018;28;20046;-36
2023/05/09 07:17:38;;;;;;;23.88;12.02;;;16.40;99.90;;;;;;5028995;28;20144;-37
2023/05/09 07:20:05;;;;;;;22.95;11.20;;;16.40;99.90;;;;;;5029128;28;20040;-37
2023/05/09 07:22:30;;;;;;;19.92;10.63;;;16.50;99.90;;;;;;5029368;28;20085;-37
2023/05/09 07:24:56;;;;;;;22.00;10.77;;;16.50;99.90;;;;;;5028040;28;20081;-37
2023/05/09 07:27:22;;;;;;;25.15;11.60;;;16.50;99.90;;;;;;5031832;28;20183;-37
2023/05/09 07:29:50;;;;;;;20.52;11.20;;;16.60;99.90;;;;;;5027864;28;20458;-36
2023/05/09 07:32:15;;;;;;;20.38;10.75;;;16.70;99.90;;;;;;5029721;28;20123;-37
2023/05/09 07:34:41;;;;;;;20.65;10.45;;;16.70;99.90;;;;;;5031894;28;20483;-36
2023/05/09 07:37:07;;;;;;;22.25;10.85;;;16.80;99.90;;;;;;5026866;28;20057;-37
2023/05/09 07:39:32;;;;;;;19.08;9.40;;;16.90;99.90;;;;;;5030338;28;20057;-36
2023/05/09 07:41:58;;;;;;;18.85;10.52;;;16.90;99.90;;;;;;5030572;28;20094;-35
2023/05/09 07:44:24;;;;;;;19.73;10.55;;;16.90;99.90;;;;;;5029542;28;20419;-35
2023/05/09 07:46:49;;;;;;;18.80;10.23;;;16.90;99.90;;;;;;5028273;28;20466;-35
2023/05/09 07:49:15;;;;;;;20.48;10.07;;;17.00;99.90;;;;;;5027121;28;20056;-35
2023/05/09 07:51:40;;;;;;;19.83;10.30;;;17.00;99.90;;;;;;5031006;28;20043;-35
2023/05/09 07:54:08;;;;;;;17.40;9.50;;;17.00;99.90;;;;;;5031593;28;20182;-35
2023/05/09 07:56:34;;;;;;;21.30;9.98;;;17.10;99.90;;;;;;5030545;28;20115;-35
2023/05/09 07:59:00;;;;;;;18.67;10.30;;;17.10;99.90;;;;;;5029109;28;20045;-35
2023/05/09 08:01:26;;;;;;;21.90;10.85;;;17.00;99.90;;;;;;5030270;28;20045;-37
2023/05/09 08:03:52;;;;;;;24.77;11.43;;;17.00;99.90;;;;;;5026773;28;21066;-37
2023/05/09 08:06:17;;;;;;;23.05;11.32;;;16.90;99.90;;;;;;5033357;28;20066;-37
2023/05/09 08:08:43;;;;;;;20.27;10.90;;;16.90;99.90;;;;;;5033807;28;20105;-37
2023/05/09 08:11:08;;;;;;;20.73;10.65;;;16.90;99.90;;;;;;5032582;28;20077;-36
2023/05/09 08:13:34;;;;;;;18.55;11.02;;;16.90;99.90;;;;;;5036709;28;20403;-36
2023/05/09 08:16:00;;;;;;;22.77;11.43;;;16.90;99.90;;;;;;5037840;28;20045;-36
2023/05/09 08:18:26;;;;;;;21.33;10.70;;;17.00;99.90;;;;;;5031188;28;20045;-36
2023/05/09 08:20:52;;;;;;;17.98;10.45;;;17.00;99.90;;;;;;5035320;28;20481;-36
2023/05/09 08:23:17;;;;;;;22.70;12.00;;;17.10;99.90;;;;;;5031456;28;20049;-36
2023/05/09 08:25:43;;;;;;;22.67;12.70;;;17.20;99.90;;;;;;5035207;28;20530;-37
2023/05/09 08:28:09;;;;;;;21.25;11.73;;;17.10;99.90;;;;;;5034155;28;20064;-36
2023/05/09 08:30:35;;;;;;;19.73;10.20;;;17.20;99.90;;;;;;5033719;28;20107;-37
2023/05/09 08:33:00;;;;;;;20.05;10.45;;;17.30;99.90;;;;;;5037431;28;20053;-37
2023/05/09 08:35:26;;;;;;;19.30;9.73;;;17.40;99.90;;;;;;5033992;28;20061;-37
2023/05/09 08:37:52;;;;;;;18.27;9.98;;;17.50;99.90;;;;;;5034525;28;20072;-36
2023/05/09 08:40:17;;;;;;;16.73;9.73;;;17.50;99.90;;;;;;5032769;28;20083;-36
2023/05/09 08:42:44;;;;;;;19.67;10.65;;;17.50;99.90;;;;;;5034165;28;20108;-36
2023/05/09 08:45:13;;;;;;;15.90;9.20;;;17.60;99.90;;;;;;5028820;28;21096;-36
2023/05/09 08:47:40;;;;;;;19.20;10.20;;;17.70;99.90;;;;;;5035250;28;20110;-36
2023/05/09 08:50:07;;;;;;;14.75;9.30;;;17.80;99.90;;;;;;5021057;28;20044;-36
2023/05/09 08:52:34;;;;;;;17.55;8.98;;;17.80;99.90;;;;;;5016366;28;20047;-36
2023/05/09 08:55:03;;;;;;;15.27;8.40;;;17.80;99.90;;;;;;5026564;28;20084;-36
2023/05/09 08:57:31;;;;;;;17.33;9.15;;;17.70;99.90;;;;;;5034396;28;21038;-37
2023/05/09 08:59:57;;;;;;;16.73;8.80;;;17.70;99.90;;;;;;5032058;28;20041;-36
2023/05/09 09:02:23;;;;;;;14.98;7.63;;;17.80;99.90;;;;;;5029430;28;20539;-36
2023/05/09 09:04:49;;;;;;;16.70;8.98;;;17.90;99.90;;;;;;5031782;28;20140;-37
2023/05/09 09:07:15;;;;;;;14.98;7.78;;;18.00;99.90;;;;;;5030961;28;20053;-37
2023/05/09 09:09:48;;;;;;;15.30;8.65;;;18.00;99.90;;;;;;5033634;28;20057;-35
2023/05/09 09:12:15;;;;;;;14.55;9.02;;;18.10;99.90;;;;;;5031594;28;20057;-35
2023/05/09 09:14:47;;;;;;;15.65;8.75;;;18.20;99.90;;;;;;5033248;28;20057;-36
2023/05/09 09:17:16;;;;;;;14.68;7.13;;;18.30;99.90;;;;;;5029622;28;20048;-35
2023/05/09 09:19:43;;;;;;;16.38;8.48;;;18.50;99.90;;;;;;5031072;28;20053;-36
2023/05/09 09:22:14;;;;;;;17.60;8.85;;;18.60;99.90;;;;;;5029570;28;20079;-35
2023/05/09 09:24:40;;;;;;;13.02;8.20;;;18.80;99.90;;;;;;5032970;28;20045;-35
2023/05/09 09:27:06;;;;;;;14.70;8.20;;;18.90;99.90;;;;;;5029928;28;20053;-35
2023/05/09 09:29:32;;;;;;;13.70;8.25;;;18.90;99.90;;;;;;5028333;28;20053;-35
2023/05/09 09:32:02;;;;;;;14.25;8.27;;;18.90;99.90;;;;;;5033900;28;20414;-35
2023/05/09 09:34:28;;;;;;;13.52;8.00;;;18.90;99.90;;;;;;5033427;28;20088;-35
2023/05/09 09:36:54;;;;;;;12.88;7.68;;;18.90;99.90;;;;;;5033981;28;20054;-35
2023/05/09 09:39:20;;;;;;;13.73;7.60;;;18.90;99.90;;;;;;5035998;28;20052;-37
2023/05/09 09:41:47;;;;;;;11.77;6.90;;;19.00;99.90;;;;;;5028866;28;20057;-37
2023/05/09 09:44:20;;;;;;;12.52;8.13;;;19.00;99.90;;;;;;5033753;28;20048;-37
2023/05/09 09:46:54;;;;;;;11.20;6.97;;;18.90;99.90;;;;;;5026597;28;20045;-37
2023/05/09 09:49:22;;;;;;;13.90;7.47;;;18.90;99.90;;;;;;5023325;28;20077;-36
2023/05/09 09:51:53;;;;;;;11.27;7.35;;;19.00;99.90;;;;;;5013208;28;20059;-37
2023/05/09 09:54:20;;;;;;;12.95;7.40;;;19.10;99.90;;;;;;5017556;28;20135;-36
2023/05/09 09:56:48;;;;;;;12.73;7.43;;;19.20;99.90;;;;;;5031408;28;20052;-37
2023/05/09 09:59:16;;;;;;;11.48;6.82;;;19.20;99.90;;;;;;5022639;28;20057;-37
2023/05/09 10:01:55;;;;;;;12.52;7.18;;;19.30;99.90;;;;;;5028168;28;20045;-37
2023/05/09 10:04:21;;;;;;;11.45;6.45;;;19.30;99.90;;;;;;5032239;28;20052;-37
2023/05/09 10:06:58;;;;;;;10.40;6.63;;;19.30;99.90;;;;;;5024132;28;20407;-37
2023/05/09 10:09:26;;;;;;;11.27;6.60;;;19.30;99.90;;;;;;5032823;28;20132;-37
2023/05/09 10:11:53;;;;;;;11.63;6.93;;;19.30;99.90;;;;;;5031066;28;20048;-37
2023/05/09 10:14:22;;;;;;;12.23;7.10;;;19.30;99.90;;;;;;5031238;28;20080;-37
2023/05/09 10:16:48;;;;;;;11.32;6.95;;;19.20;99.90;;;;;;5031623;28;20542;-37
2023/05/09 10:19:22;;;;;;;10.88;6.65;;;19.10;99.90;;;;;;5026762;28;20144;-36
2023/05/09 10:21:54;;;;;;;10.48;6.72;;;19.00;99.90;;;;;;5028775;28;20491;-36
2023/05/09 10:24:32;;;;;;;12.07;7.30;;;18.90;99.90;;;;;;5026996;28;20052;-36
2023/05/09 10:27:04;;;;;;;9.65;6.47;;;18.80;99.90;;;;;;5016335;28;20134;-37
2023/05/09 10:29:34;;;;;;;11.63;7.38;;;18.70;99.90;;;;;;5038656;28;20060;-37
2023/05/09 10:32:24;;;;;;;10.90;7.18;;;18.70;99.90;;;;;;5009480;28;20067;-36
2023/05/09 10:34:53;;;;;;;12.40;7.13;;;18.60;99.90;;;;;;5022234;28;20084;-37
2023/05/09 10:37:20;;;;;;;12.88;7.95;;;18.60;99.90;;;;;;5031882;28;20140;-37
2023/05/09 10:39:46;;;;;;;11.10;7.32;;;18.60;99.90;;;;;;5031936;28;20111;-37
2023/05/09 10:42:12;;;;;;;11.10;6.60;;;18.50;99.90;;;;;;5028538;28;20053;-38
2023/05/09 10:44:39;;;;;;;11.43;7.07;;;18.40;99.90;;;;;;5015785;28;20484;-37
2023/05/09 10:47:05;;;;;;;11.90;7.10;;;18.30;99.90;;;;;;5010873;28;20065;-44
2023/05/09 10:49:32;;;;;;;10.73;7.35;;;18.20;99.90;;;;;;5014592;28;20060;-38
2023/05/09 10:51:57;;;;;;;13.57;7.22;;;18.20;99.90;;;;;;5015373;28;20107;-37
2023/05/09 10:54:32;;;;;;;12.40;7.47;;;18.30;99.90;;;;;;5016442;28;20466;-37
2023/05/09 10:56:58;;;;;;;10.98;7.43;;;18.40;99.90;;;;;;5018760;28;20046;-37
2023/05/09 10:59:40;;;;;;;12.13;8.02;;;18.40;99.90;;;;;;5034066;28;20048;-38
2023/05/09 11:02:12;;;;;;;15.15;7.43;;;18.40;99.90;;;;;;5014108;28;20060;-38
2023/05/09 11:04:38;;;;;;;;;;;18.30;99.90;;;;;;5028368;28;20545;-38
2023/05/09 11:07:32;;;;;;;11.70;7.85;;;18.40;99.90;;;;;;5028550;28;19917;-37
2023/05/09 11:10:07;;;;;;;13.30;8.20;;;18.50;99.90;;;;;;5029194;28;20517;-38
2023/05/09 11:12:33;;;;;;;12.82;7.95;;;18.50;99.90;;;;;;5027443;28;20046;-38
2023/05/09 11:15:06;;;;;;;12.75;7.82;;;18.60;99.90;;;;;;5004679;28;20044;-38
2023/05/09 11:17:37;;;;;;;12.80;7.90;;;18.60;99.90;;;;;;5035008;28;20167;-38
2023/05/09 11:20:05;;;;;;;12.05;8.93;;;18.50;99.90;;;;;;5030616;28;20053;-38
2023/05/09 11:22:41;;;;;;;13.07;7.80;;;18.60;99.90;;;;;;5037358;28;20056;-38
2023/05/09 11:25:10;;;;;;;14.45;8.40;;;18.60;99.90;;;;;;5023930;28;20058;-38
2023/05/09 11:27:48;;;;;;;13.77;8.65;;;18.50;99.90;;;;;;5012964;28;20179;-35
2023/05/09 11:30:15;;;;;;;13.88;8.55;;;18.40;99.90;;;;;;5024225;28;20081;-35
2023/05/09 11:32:43;;;;;;;12.00;7.95;;;18.40;99.90;;;;;;5027302;28;20068;-38
2023/05/09 11:35:09;;;;;;;13.40;8.70;;;18.30;99.90;;;;;;5021640;28;20803;-39
2023/05/09 11:37:59;;;;;;;14.02;8.80;;;18.30;99.90;;;;;;5030239;28;20083;-37
2023/05/09 11:40:26;;;;;;;12.18;8.27;;;18.20;99.90;;;;;;5023252;28;20083;-37
2023/05/09 11:42:54;;;;;;;15.63;9.57;;;18.10;99.90;;;;;;5029495;28;20099;-38
2023/05/09 11:45:24;;;;;;;15.15;8.60;;;18.10;99.90;;;;;;5035086;28;20057;-38
2023/05/09 11:47:50;;;;;;;11.85;7.97;;;18.10;99.90;;;;;;5038014;28;20069;-37
2023/05/09 11:50:18;;;;;;;11.13;8.30;;;18.00;99.90;;;;;;5037423;28;20080;-42
2023/05/09 11:52:46;;;;;;;14.93;8.60;;;17.90;99.90;;;;;;5034527;28;20521;-37
2023/05/09 11:55:14;;;;;;;12.02;7.70;;;17.80;99.90;;;;;;5040619;28;20076;-38
2023/05/09 11:57:43;;;;;;;11.45;8.32;;;17.90;99.90;;;;;;5033903;28;20046;-38
2023/05/09 12:00:09;;;;;;;12.93;9.25;;;17.90;99.90;;;;;;5023268;28;20072;-38
2023/05/09 12:02:36;;;;;;;11.43;8.27;;;17.90;99.90;;;;;;5028366;28;20045;-38
2023/05/09 12:05:13;;;;;;;12.32;8.48;;;17.90;99.90;;;;;;5038014;28;20049;-38
2023/05/09 12:07:39;;;;;;;11.95;7.78;;;18.00;99.90;;;;;;5032549;28;20061;-38
2023/05/09 12:10:24;;;;;;;12.10;7.93;;;18.00;99.90;;;;;;5028214;28;20053;-38
2023/05/09 12:12:54;;;;;;;11.95;7.43;;;18.00;99.90;;;;;;5035593;28;20103;-38
2023/05/09 12:15:20;;;;;;;12.15;7.85;;;18.00;99.90;;;;;;5044237;28;20096;-38
2023/05/09 12:17:46;;;;;;;10.35;7.75;;;18.00;99.90;;;;;;5036570;28;21493;-38
2023/05/09 12:20:12;;;;;;;11.77;8.48;;;17.90;99.90;;;;;;5039927;28;20069;-38
2023/05/09 12:22:42;;;;;;;9.63;6.78;;;17.70;99.90;;;;;;5030602;28;20123;-38
2023/05/09 12:25:10;;;;;;;10.00;6.63;;;17.60;99.90;;;;;;5022088;28;20052;-38
2023/05/09 12:27:37;;;;;;;8.80;5.93;;;17.50;99.90;;;;;;5011917;28;20054;-38
2023/05/09 12:30:09;;;;;;;8.55;5.68;;;17.40;99.90;;;;;;5010771;28;20045;-38
2023/05/09 12:32:36;;;;;;;9.73;6.50;;;17.40;99.90;;;;;;5038562;28;20493;-36